Time;durP1;ratioP1;P1;durP2;ratioP2;P2;SDS_P1;SDS_P2;PMS_P1;PMS_P2;Temp;Humidity;BMP_temperature;BMP_pressure;BME280_temperature;BME280_humidity;BME280_pressure;Samples;Min_cycle;Max_cycle;Signal;HPM_P1;HPM_P2
2023/02/23 00:00:53;;;;;;;31.10;28.60;;;;;;;;;;5148959;27;20475;-84
2023/02/23 00:03:20;;;;;;;30.37;28.17;;;;;;;;;;5147620;27;20467;-84
2023/02/23 00:05:47;;;;;;;31.40;28.77;;;;;;;;;;5147883;27;20460;-84
2023/02/23 00:08:14;;;;;;;31.03;28.67;;;;;;;;;;5146928;27;20447;-84
2023/02/23 00:10:43;;;;;;;31.33;28.77;;;;;;;;;;5146398;27;20489;-84
2023/02/23 00:13:10;;;;;;;32.20;29.77;;;;;;;;;;5146524;27;20466;-84
2023/02/23 00:15:37;;;;;;;31.30;28.80;;;;;;;;;;5146711;27;20536;-84
2023/02/23 00:18:05;;;;;;;29.07;27.07;;;;;;;;;;5146244;27;20451;-83
2023/02/23 00:20:32;;;;;;;32.03;29.67;;;;;;;;;;5146395;27;20476;-84
2023/02/23 00:22:59;;;;;;;30.20;27.90;;;;;;;;;;5144785;27;20477;-83
2023/02/23 00:25:29;;;;;;;31.00;28.70;;;;;;;;;;5146153;27;20696;-83
2023/02/23 00:27:58;;;;;;;30.07;27.80;;;;;;;;;;5147059;27;20484;-83
2023/02/23 00:30:25;;;;;;;32.37;29.77;;;;;;;;;;5146183;27;20447;-84
2023/02/23 00:32:52;;;;;;;31.90;29.30;;;;;;;;;;5145712;27;20463;-83
2023/02/23 00:35:20;;;;;;;31.83;29.43;;;;;;;;;;5146096;27;20483;-84
2023/02/23 00:37:48;;;;;;;36.07;32.87;;;;;;;;;;5146272;27;20890;-84
2023/02/23 00:40:15;;;;;;;35.20;32.40;;;;;;;;;;5145585;27;20804;-84
2023/02/23 00:42:43;;;;;;;33.67;31.07;;;;;;;;;;5145286;27;20536;-84
2023/02/23 00:45:12;;;;;;;36.23;32.90;;;;;;;;;;5145726;27;20434;-84
2023/02/23 00:47:41;;;;;;;36.13;33.03;;;;;;;;;;5146532;27;20451;-84
2023/02/23 00:50:10;;;;;;;37.67;34.50;;;;;;;;;;5150227;27;20512;-83
2023/02/23 00:52:37;;;;;;;36.07;33.07;;;;;;;;;;5153846;27;20898;-84
2023/02/23 00:55:04;;;;;;;40.47;36.77;;;;;;;;;;5145792;27;20448;-84
2023/02/23 00:57:32;;;;;;;39.70;36.20;;;;;;;;;;5144667;27;20474;-84
2023/02/23 00:59:59;;;;;;;37.50;34.10;;;;;;;;;;5144913;27;20472;-83
2023/02/23 01:02:29;;;;;;;38.17;35.00;;;;;;;;;;5145026;27;20476;-83
2023/02/23 01:04:56;;;;;;;39.53;35.80;;;;;;;;;;5143310;27;20938;-84
2023/02/23 01:07:24;;;;;;;37.47;34.17;;;;;;;;;;5143677;27;20406;-84
2023/02/23 01:09:52;;;;;;;37.57;34.10;;;;;;;;;;5153694;27;20427;-83
2023/02/23 01:12:19;;;;;;;38.00;34.80;;;;;;;;;;5157061;27;20429;-85
2023/02/23 01:14:46;;;;;;;38.73;35.20;;;;;;;;;;5155314;27;20466;-84
2023/02/23 01:17:13;;;;;;;39.27;35.63;;;;;;;;;;5154548;27;20466;-84
2023/02/23 01:19:42;;;;;;;35.93;32.97;;;;;;;;;;5147992;27;20452;-84
2023/02/23 01:22:09;;;;;;;38.47;35.23;;;;;;;;;;5145289;27;20483;-84
2023/02/23 01:24:37;;;;;;;40.30;36.70;;;;;;;;;;5146063;27;20425;-84
2023/02/23 01:27:04;;;;;;;41.17;37.13;;;;;;;;;;5145188;27;20435;-84
2023/02/23 01:29:31;;;;;;;40.40;36.40;;;;;;;;;;5145684;27;20431;-84
2023/02/23 01:31:58;;;;;;;41.83;37.53;;;;;;;;;;5145105;27;20504;-84
2023/02/23 01:34:25;;;;;;;44.53;39.93;;;;;;;;;;5145249;27;20406;-84
2023/02/23 01:36:54;;;;;;;42.90;38.83;;;;;;;;;;5146154;27;20445;-84
2023/02/23 01:39:21;;;;;;;45.33;40.17;;;;;;;;;;5146038;27;20467;-84
2023/02/23 01:41:50;;;;;;;45.50;41.40;;;;;;;;;;5144638;27;20477;-84
2023/02/23 01:44:38;;;;;;;46.50;42.10;;;;;;;;;;5145885;27;20441;-84
2023/02/23 01:47:06;;;;;;;49.47;44.60;;;;;;;;;;5146792;28;20457;-84
2023/02/23 01:49:34;;;;;;;48.17;43.03;;;;;;;;;;5148257;27;20471;-85
2023/02/23 01:52:03;;;;;;;48.57;43.77;;;;;;;;;;5145120;28;20506;-85
2023/02/23 01:54:31;;;;;;;54.30;48.40;;;;;;;;;;5146486;28;20459;-85
2023/02/23 01:57:00;;;;;;;49.33;44.53;;;;;;;;;;5146614;28;20532;-85
2023/02/23 01:59:29;;;;;;;52.23;46.77;;;;;;;;;;5146722;28;20457;-85
2023/02/23 02:01:57;;;;;;;50.63;45.60;;;;;;;;;;5144908;28;20486;-85
2023/02/23 02:04:24;;;;;;;53.03;47.37;;;;;;;;;;5146452;28;20936;-84
2023/02/23 02:06:54;;;;;;;48.00;43.30;;;;;;;;;;5146307;28;20473;-84
2023/02/23 02:09:27;;;;;;;52.50;47.00;;;;;;;;;;5146071;28;20818;-85
2023/02/23 02:11:54;;;;;;;51.80;46.30;;;;;;;;;;5146762;27;20434;-85
2023/02/23 02:14:22;;;;;;;52.13;46.90;;;;;;;;;;5146239;28;20453;-85
2023/02/23 02:17:01;;;;;;;50.73;45.53;;;;;;;;;;5146285;28;20461;-85
2023/02/23 02:19:45;;;;;;;50.00;44.73;;;;;;;;;;5145795;28;20431;-85
2023/02/23 02:22:47;;;;;;;54.33;48.67;;;;;;;;;;5144988;28;20510;-85
2023/02/23 02:25:30;;;;;;;51.10;46.50;;;;;;;;;;5061825;28;20482;-83
2023/02/23 02:28:13;;;;;;;50.23;45.10;;;;;;;;;;5062404;28;20417;-84
2023/02/23 02:30:48;;;;;;;51.53;46.37;;;;;;;;;;5118523;28;20443;-84
2023/02/23 02:33:31;;;;;;;51.40;45.80;;;;;;;;;;5147270;28;20439;-84
2023/02/23 02:36:17;;;;;;;52.90;47.50;;;;;;;;;;5147966;27;20562;-84
2023/02/23 02:38:52;;;;;;;51.93;46.30;;;;;;;;;;5146351;28;20857;-84
2023/02/23 02:41:22;;;;;;;54.03;48.53;;;;;;;;;;5145347;28;20917;-84
2023/02/23 02:43:52;;;;;;;50.07;45.27;;;;;;;;;;5145932;28;20441;-84
2023/02/23 02:46:23;;;;;;;51.83;46.73;;;;;;;;;;5145865;28;20433;-84
2023/02/23 02:48:56;;;;;;;51.73;46.50;;;;;;;;;;5146124;28;20910;-84
2023/02/23 02:51:27;;;;;;;54.27;48.67;;;;;;;;;;5145365;28;20439;-84
2023/02/23 02:54:03;;;;;;;54.87;49.10;;;;;;;;;;5148787;27;20475;-84
2023/02/23 02:56:32;;;;;;;56.23;50.17;;;;;;;;;;5149670;27;20476;-84
2023/02/23 02:59:00;;;;;;;56.00;50.03;;;;;;;;;;5149436;27;20415;-84
2023/02/23 04:19:11;;;;;;;80.83;59.10;;;;;;;;;;5148036;27;20404;-84
2023/02/23 04:21:39;;;;;;;91.10;62.07;;;;;;;;;;5148017;27;20414;-84
2023/02/23 04:24:06;;;;;;;78.13;61.90;;;;;;;;;;5147749;27;20447;-84
2023/02/23 04:26:33;;;;;;;81.37;62.97;;;;;;;;;;5146436;27;20468;-83
2023/02/23 04:29:00;;;;;;;101.77;67.50;;;;;;;;;;5148207;27;20446;-84
2023/02/23 04:31:27;;;;;;;91.83;61.67;;;;;;;;;;5146910;27;20838;-84
2023/02/23 04:33:55;;;;;;;71.60;59.03;;;;;;;;;;5147623;27;20415;-85
2023/02/23 04:36:23;;;;;;;115.33;64.87;;;;;;;;;;5146918;27;20507;-83
2023/02/23 04:38:50;;;;;;;87.57;60.03;;;;;;;;;;5147150;27;20422;-84
2023/02/23 04:41:17;;;;;;;83.10;63.53;;;;;;;;;;5147644;27;20501;-86
2023/02/23 04:43:44;;;;;;;98.87;63.50;;;;;;;;;;5147679;27;20543;-84
2023/02/23 04:46:11;;;;;;;98.97;67.10;;;;;;;;;;5148345;27;20451;-84
2023/02/23 04:48:38;;;;;;;92.37;62.80;;;;;;;;;;5147680;27;20492;-85
2023/02/23 04:51:07;;;;;;;82.63;63.27;;;;;;;;;;5147863;27;20438;-84
2023/02/23 04:53:34;;;;;;;105.10;70.00;;;;;;;;;;5147154;27;20933;-84
2023/02/23 04:56:01;;;;;;;87.70;65.47;;;;;;;;;;5147161;27;20455;-84
2023/02/23 04:58:28;;;;;;;121.30;72.60;;;;;;;;;;5147653;27;20449;-84
2023/02/23 05:00:56;;;;;;;98.07;69.13;;;;;;;;;;5148194;27;20443;-85
2023/02/23 05:03:22;;;;;;;86.00;66.20;;;;;;;;;;5146874;27;20481;-85
2023/02/23 05:05:50;;;;;;;93.70;66.40;;;;;;;;;;5147687;27;20451;-85
2023/02/23 05:08:18;;;;;;;90.60;68.30;;;;;;;;;;5155461;27;20459;-84
2023/02/23 05:10:46;;;;;;;86.40;66.07;;;;;;;;;;5154909;27;20484;-84
2023/02/23 05:13:15;;;;;;;71.87;62.20;;;;;;;;;;5155258;27;20461;-84
2023/02/23 05:15:42;;;;;;;93.60;66.27;;;;;;;;;;5150859;27;20484;-84
2023/02/23 05:18:09;;;;;;;84.30;67.67;;;;;;;;;;5150473;27;20481;-84
2023/02/23 05:20:36;;;;;;;99.67;67.17;;;;;;;;;;5148025;27;20450;-84
2023/02/23 05:23:04;;;;;;;80.37;61.53;;;;;;;;;;5147248;27;20483;-84
2023/02/23 05:25:32;;;;;;;77.63;64.00;;;;;;;;;;5146244;27;20447;-84
2023/02/23 05:28:00;;;;;;;76.40;63.37;;;;;;;;;;5147857;27;20476;-84
2023/02/23 05:30:27;;;;;;;87.70;70.00;;;;;;;;;;5147631;27;20463;-85
2023/02/23 05:32:54;;;;;;;88.10;67.30;;;;;;;;;;5147045;27;20407;-84
2023/02/23 05:35:21;;;;;;;83.57;65.43;;;;;;;;;;5148490;27;20501;-83
2023/02/23 05:37:48;;;;;;;74.53;64.03;;;;;;;;;;5148531;27;20432;-84
2023/02/23 05:40:15;;;;;;;89.10;65.80;;;;;;;;;;5146097;27;20499;-84
2023/02/23 05:42:43;;;;;;;86.33;64.40;;;;;;;;;;5147282;27;20463;-84
2023/02/23 05:45:11;;;;;;;96.90;65.57;;;;;;;;;;5147346;27;20503;-84
2023/02/23 05:47:38;;;;;;;81.20;66.60;;;;;;;;;;5148749;27;20515;-85
2023/02/23 05:50:05;;;;;;;85.53;63.37;;;;;;;;;;5148150;27;20435;-85
2023/02/23 05:52:32;;;;;;;93.73;68.23;;;;;;;;;;5147728;28;20521;-85
2023/02/23 05:54:59;;;;;;;93.33;67.33;;;;;;;;;;5147851;27;20494;-84
2023/02/23 05:57:27;;;;;;;92.37;65.60;;;;;;;;;;5147617;28;20990;-85
2023/02/23 05:59:55;;;;;;;87.90;64.83;;;;;;;;;;5148522;28;20430;-84
2023/02/23 06:02:22;;;;;;;101.80;66.60;;;;;;;;;;5146442;27;21056;-85
2023/02/23 06:04:49;;;;;;;93.10;67.30;;;;;;;;;;5148064;28;20447;-84
2023/02/23 06:07:17;;;;;;;89.43;63.47;;;;;;;;;;5147947;28;20489;-85
2023/02/23 06:09:44;;;;;;;87.20;65.83;;;;;;;;;;5147370;28;20952;-85
2023/02/23 06:12:11;;;;;;;109.80;70.77;;;;;;;;;;5146280;27;20552;-85
2023/02/23 06:14:38;;;;;;;113.00;69.87;;;;;;;;;;5147243;28;20386;-85
2023/02/23 06:17:06;;;;;;;101.47;69.40;;;;;;;;;;5147822;28;20538;-85
2023/02/23 06:19:33;;;;;;;103.07;67.13;;;;;;;;;;5147295;28;20448;-84
2023/02/23 06:22:00;;;;;;;95.50;67.77;;;;;;;;;;5147732;28;20931;-85
2023/02/23 06:24:27;;;;;;;92.53;67.03;;;;;;;;;;5147672;28;20498;-85
2023/02/23 06:26:54;;;;;;;93.90;66.80;;;;;;;;;;5147551;27;20551;-85
2023/02/23 06:29:21;;;;;;;109.40;69.10;;;;;;;;;;5151722;27;20435;-85
2023/02/23 06:31:48;;;;;;;113.77;68.97;;;;;;;;;;5151178;27;20458;-85
2023/02/23 06:34:17;;;;;;;94.47;66.67;;;;;;;;;;5152024;27;20492;-84
2023/02/23 06:36:44;;;;;;;111.20;71.10;;;;;;;;;;5151292;27;20447;-84
2023/02/23 06:39:12;;;;;;;108.70;67.73;;;;;;;;;;5151420;27;20445;-84
2023/02/23 06:41:39;;;;;;;119.23;72.27;;;;;;;;;;5150766;27;20439;-85
2023/02/23 06:44:06;;;;;;;129.57;73.90;;;;;;;;;;5150040;27;20466;-85
2023/02/23 06:46:33;;;;;;;124.70;74.50;;;;;;;;;;5150575;27;20468;-84
2023/02/23 06:49:00;;;;;;;118.47;72.03;;;;;;;;;;5150038;27;20464;-85
2023/02/23 06:51:28;;;;;;;110.87;72.13;;;;;;;;;;5150121;27;20420;-85
2023/02/23 06:53:56;;;;;;;102.17;71.87;;;;;;;;;;5151447;27;20453;-85
2023/02/23 06:56:23;;;;;;;87.57;69.67;;;;;;;;;;5150132;27;20475;-85
2023/02/23 06:58:50;;;;;;;88.23;69.23;;;;;;;;;;5151458;27;20444;-85
2023/02/23 07:01:18;;;;;;;94.77;71.87;;;;;;;;;;5148846;27;20414;-85
2023/02/23 07:03:45;;;;;;;95.57;70.27;;;;;;;;;;5152115;27;20464;-85
2023/02/23 07:06:12;;;;;;;90.20;72.27;;;;;;;;;;5150820;27;20471;-84
2023/02/23 07:08:40;;;;;;;101.83;69.70;;;;;;;;;;5150790;27;20423;-83
2023/02/23 07:11:08;;;;;;;125.10;69.47;;;;;;;;;;5148633;27;20458;-83
2023/02/23 07:13:35;;;;;;;111.33;70.00;;;;;;;;;;5148103;27;20447;-83
2023/02/23 07:16:02;;;;;;;107.37;74.67;;;;;;;;;;5148784;27;20427;-84
2023/02/23 07:18:29;;;;;;;105.57;73.33;;;;;;;;;;5151385;27;20418;-85
2023/02/23 07:20:56;;;;;;;105.70;69.27;;;;;;;;;;5150942;27;20496;-84
2023/02/23 07:23:24;;;;;;;111.27;73.03;;;;;;;;;;5147988;27;20527;-83
2023/02/23 07:25:53;;;;;;;104.73;71.60;;;;;;;;;;5148243;27;20482;-83
2023/02/23 07:28:23;;;;;;;93.90;70.20;;;;;;;;;;5148240;27;20750;-83
2023/02/23 07:30:50;;;;;;;115.73;71.47;;;;;;;;;;5148956;27;20435;-82
2023/02/23 07:33:17;;;;;;;117.93;73.53;;;;;;;;;;5147564;27;20490;-83
2023/02/23 07:35:44;;;;;;;94.40;68.37;;;;;;;;;;5147881;27;20974;-82
2023/02/23 07:38:12;;;;;;;100.03;70.13;;;;;;;;;;5148933;27;20999;-82
2023/02/23 07:40:39;;;;;;;95.97;72.27;;;;;;;;;;5147206;27;20916;-82
2023/02/23 07:43:07;;;;;;;105.37;69.20;;;;;;;;;;5147920;27;20478;-82
2023/02/23 07:45:35;;;;;;;95.67;68.20;;;;;;;;;;5147602;27;20444;-83
2023/02/23 07:48:01;;;;;;;89.37;70.13;;;;;;;;;;5147456;27;20452;-83
2023/02/23 07:50:29;;;;;;;89.17;71.03;;;;;;;;;;5148057;27;20505;-82
2023/02/23 07:52:55;;;;;;;91.47;71.97;;;;;;;;;;5147659;27;20445;-82
2023/02/23 07:55:22;;;;;;;94.77;69.50;;;;;;;;;;5147943;27;20443;-83
2023/02/23 07:57:49;;;;;;;100.80;75.53;;;;;;;;;;5147473;27;20500;-83
2023/02/23 08:00:18;;;;;;;103.17;70.13;;;;;;;;;;5147240;27;20448;-82
2023/02/23 08:02:45;;;;;;;99.23;74.50;;;;;;;;;;5147566;27;20448;-82
2023/02/23 08:05:12;;;;;;;118.90;77.17;;;;;;;;;;5147553;27;20462;-82
2023/02/23 08:07:40;;;;;;;102.80;74.97;;;;;;;;;;5147959;27;20827;-82
2023/02/23 08:10:07;;;;;;;107.37;74.50;;;;;;;;;;5148382;27;20419;-82
2023/02/23 08:12:34;;;;;;;107.33;76.03;;;;;;;;;;5146991;27;20451;-83
2023/02/23 08:15:01;;;;;;;115.97;78.73;;;;;;;;;;5147040;27;20459;-82
2023/02/23 08:17:29;;;;;;;104.27;77.97;;;;;;;;;;5146621;27;20456;-82
2023/02/23 08:19:56;;;;;;;105.07;77.10;;;;;;;;;;5146933;27;20880;-81
2023/02/23 08:22:24;;;;;;;112.23;77.17;;;;;;;;;;5146075;27;20441;-82
2023/02/23 08:24:50;;;;;;;106.03;72.83;;;;;;;;;;5146214;27;20461;-82
2023/02/23 08:27:17;;;;;;;113.43;77.63;;;;;;;;;;5147064;27;20412;-82
2023/02/23 08:29:44;;;;;;;129.00;85.30;;;;;;;;;;5147226;27;20448;-82
2023/02/23 08:32:12;;;;;;;135.63;89.70;;;;;;;;;;5145775;27;20611;-83
2023/02/23 08:34:41;;;;;;;125.30;85.97;;;;;;;;;;5146634;27;20406;-82
2023/02/23 08:37:08;;;;;;;280.00;143.77;;;;;;;;;;5146584;27;20422;-82
2023/02/23 08:39:35;;;;;;;155.80;96.77;;;;;;;;;;5146562;27;20444;-82
2023/02/23 08:42:03;;;;;;;124.23;83.07;;;;;;;;;;5146596;27;20539;-82
2023/02/23 08:44:30;;;;;;;120.17;77.90;;;;;;;;;;5146856;27;20532;-82
2023/02/23 08:46:57;;;;;;;107.17;80.93;;;;;;;;;;5145824;27;20479;-82
2023/02/23 08:49:24;;;;;;;114.90;79.10;;;;;;;;;;5147120;27;20444;-85
2023/02/23 08:51:52;;;;;;;102.60;75.83;;;;;;;;;;5145357;27;20438;-83
2023/02/23 08:54:19;;;;;;;98.07;71.47;;;;;;;;;;5145376;27;20445;-82
2023/02/23 08:56:46;;;;;;;105.90;75.80;;;;;;;;;;5146757;27;20463;-82
2023/02/23 08:59:16;;;;;;;114.67;76.73;;;;;;;;;;5146124;27;20471;-83
2023/02/23 09:01:43;;;;;;;103.77;74.47;;;;;;;;;;5145003;27;20467;-82
2023/02/23 09:04:10;;;;;;;105.90;73.60;;;;;;;;;;5146126;27;20479;-82
2023/02/23 09:06:37;;;;;;;115.93;77.87;;;;;;;;;;5145161;27;20808;-82
2023/02/23 09:09:06;;;;;;;110.73;80.50;;;;;;;;;;5146026;27;20430;-82
2023/02/23 09:11:33;;;;;;;103.97;74.93;;;;;;;;;;5144479;27;20932;-82
2023/02/23 09:14:00;;;;;;;111.07;80.27;;;;;;;;;;5145750;27;20403;-82
2023/02/23 09:16:27;;;;;;;103.90;77.17;;;;;;;;;;5143816;27;20505;-82
2023/02/23 09:18:54;;;;;;;103.67;76.83;;;;;;;;;;5145130;27;20484;-82
2023/02/23 09:21:23;;;;;;;112.37;74.90;;;;;;;;;;5144582;27;20445;-82
2023/02/23 09:23:51;;;;;;;113.27;79.07;;;;;;;;;;5144797;27;20519;-82
2023/02/23 09:26:20;;;;;;;111.10;76.27;;;;;;;;;;5144158;27;20439;-82
2023/02/23 09:28:47;;;;;;;98.17;74.17;;;;;;;;;;5145204;27;20454;-82
2023/02/23 09:31:15;;;;;;;106.17;75.40;;;;;;;;;;5142356;27;20921;-79
2023/02/23 09:33:42;;;;;;;104.17;74.67;;;;;;;;;;5141442;27;20510;-79
2023/02/23 09:36:11;;;;;;;99.07;72.23;;;;;;;;;;5142179;27;20511;-79
2023/02/23 09:38:38;;;;;;;119.93;78.90;;;;;;;;;;5141529;27;20442;-79
2023/02/23 09:41:08;;;;;;;97.60;73.90;;;;;;;;;;5141938;27;20434;-80
2023/02/23 09:43:41;;;;;;;96.50;71.43;;;;;;;;;;5139158;27;20481;-79
2023/02/23 09:46:12;;;;;;;89.07;70.10;;;;;;;;;;5140204;27;20500;-79
2023/02/23 09:48:39;;;;;;;102.87;70.87;;;;;;;;;;5140945;27;20441;-79
2023/02/23 09:51:08;;;;;;;90.67;68.47;;;;;;;;;;5141334;27;20437;-79
2023/02/23 09:53:37;;;;;;;111.67;76.90;;;;;;;;;;5141060;27;20454;-79
2023/02/23 09:56:08;;;;;;;88.13;71.10;;;;;;;;;;5141319;27;20482;-79
2023/02/23 09:58:36;;;;;;;97.23;74.97;;;;;;;;;;5141984;28;20455;-79
2023/02/23 10:01:11;;;;;;;98.53;71.07;;;;;;;;;;5142900;28;20440;-79
2023/02/23 10:03:39;;;;;;;94.63;73.43;;;;;;;;;;5144810;27;20454;-80
2023/02/23 10:06:09;;;;;;;88.27;70.87;;;;;;;;;;5147485;27;20484;-79
2023/02/23 10:08:44;;;;;;;91.00;72.97;;;;;;;;;;5147569;27;20536;-81
2023/02/23 10:11:14;;;;;;;91.93;71.00;;;;;;;;;;5130563;27;20411;-81
2023/02/23 10:13:49;;;;;;;92.70;73.00;;;;;;;;;;5147444;27;20413;-81
2023/02/23 10:16:19;;;;;;;84.70;69.17;;;;;;;;;;5147408;27;20478;-82
2023/02/23 10:18:50;;;;;;;91.30;71.37;;;;;;;;;;5148278;27;20496;-82
2023/02/23 10:21:19;;;;;;;93.73;71.00;;;;;;;;;;5147247;27;20878;-81
2023/02/23 10:23:48;;;;;;;98.17;75.43;;;;;;;;;;5147573;27;20971;-84
2023/02/23 10:26:17;;;;;;;123.93;102.33;;;;;;;;;;5145683;27;20495;-89
2023/02/23 10:28:46;;;;;;;96.10;70.97;;;;;;;;;;5145217;27;20454;-87
2023/02/23 10:31:23;;;;;;;100.80;83.70;;;;;;;;;;5145619;27;20541;-88
2023/02/23 10:33:52;;;;;;;94.07;72.00;;;;;;;;;;5145100;27;20427;-82
2023/02/23 10:36:24;;;;;;;113.80;86.03;;;;;;;;;;5145526;27;20448;-81
2023/02/23 10:38:52;;;;;;;95.07;76.10;;;;;;;;;;5144731;27;20828;-83
2023/02/23 10:41:19;;;;;;;90.27;69.37;;;;;;;;;;5146887;27;20447;-83
2023/02/23 10:43:48;;;;;;;112.67;84.40;;;;;;;;;;5148536;27;20429;-83
2023/02/23 10:46:20;;;;;;;98.67;76.17;;;;;;;;;;5147897;27;20558;-82
2023/02/23 10:48:48;;;;;;;125.87;87.60;;;;;;;;;;5147776;27;20456;-82
2023/02/23 10:51:17;;;;;;;86.80;70.00;;;;;;;;;;5147282;27;20453;-82
2023/02/23 10:53:44;;;;;;;88.37;66.23;;;;;;;;;;5147985;27;20475;-81
2023/02/23 10:56:12;;;;;;;77.37;62.70;;;;;;;;;;5148638;27;20455;-83
2023/02/23 10:58:41;;;;;;;72.70;58.67;;;;;;;;;;5147560;27;20443;-83
2023/02/23 11:01:09;;;;;;;68.70;58.17;;;;;;;;;;5148812;27;20503;-83
2023/02/23 11:03:38;;;;;;;64.60;57.63;;;;;;;;;;5140677;27;20473;-85
2023/02/23 11:06:06;;;;;;;67.07;55.90;;;;;;;;;;5134234;27;20476;-84
2023/02/23 11:08:34;;;;;;;64.93;58.03;;;;;;;;;;5125528;28;20778;-82
2023/02/23 11:11:02;;;;;;;78.37;61.67;;;;;;;;;;5128005;27;20437;-80
2023/02/23 11:13:32;;;;;;;58.33;51.97;;;;;;;;;;5143111;27;20496;-86
2023/02/23 11:16:04;;;;;;;59.00;52.60;;;;;;;;;;5145280;27;20468;-84
2023/02/23 11:18:33;;;;;;;97.23;69.43;;;;;;;;;;5147326;27;20416;-84
2023/02/23 11:21:00;;;;;;;63.33;56.57;;;;;;;;;;5146969;27;20469;-83
2023/02/23 11:23:29;;;;;;;101.77;76.77;;;;;;;;;;5145761;27;20547;-83
2023/02/23 11:25:58;;;;;;;98.47;70.73;;;;;;;;;;5147317;27;20485;-83
2023/02/23 11:28:29;;;;;;;68.57;57.37;;;;;;;;;;5146876;27;20441;-83
2023/02/23 11:30:56;;;;;;;75.03;66.80;;;;;;;;;;5147374;27;20442;-83
2023/02/23 11:33:34;;;;;;;62.73;55.93;;;;;;;;;;5146041;27;20441;-83
2023/02/23 11:36:13;;;;;;;70.90;63.13;;;;;;;;;;5147434;27;20472;-83
2023/02/23 11:38:40;;;;;;;60.00;53.40;;;;;;;;;;5146603;27;20491;-83
2023/02/23 11:41:19;;;;;;;64.80;57.03;;;;;;;;;;5146417;27;20466;-83
2023/02/23 11:43:48;;;;;;;62.93;56.07;;;;;;;;;;5145949;27;20464;-83
2023/02/23 11:46:15;;;;;;;66.37;58.10;;;;;;;;;;5146169;27;20542;-82
2023/02/23 11:48:47;;;;;;;63.17;56.47;;;;;;;;;;5146436;27;20440;-84
2023/02/23 11:51:24;;;;;;;130.97;109.40;;;;;;;;;;5146377;27;20437;-84
2023/02/23 11:53:52;;;;;;;62.67;55.93;;;;;;;;;;5146402;27;20973;-82
2023/02/23 11:56:21;;;;;;;75.07;67.13;;;;;;;;;;5146386;27;20423;-83
2023/02/23 11:58:49;;;;;;;57.70;51.83;;;;;;;;;;5146563;27;20863;-84
2023/02/23 12:01:19;;;;;;;60.53;53.57;;;;;;;;;;5146001;27;20486;-84
2023/02/23 12:03:48;;;;;;;56.33;50.53;;;;;;;;;;5145423;27;20983;-83
2023/02/23 12:06:29;;;;;;;58.63;52.43;;;;;;;;;;5145278;27;20514;-82
2023/02/23 12:09:01;;;;;;;60.30;52.13;;;;;;;;;;5144193;27;20951;-83
2023/02/23 12:11:29;;;;;;;50.27;45.03;;;;;;;;;;5144935;27;20441;-84
2023/02/23 12:13:58;;;;;;;62.50;55.67;;;;;;;;;;5145766;27;20453;-83
2023/02/23 12:16:29;;;;;;;54.83;48.93;;;;;;;;;;5146672;27;20489;-83
2023/02/23 12:18:59;;;;;;;53.67;47.90;;;;;;;;;;5143756;27;20524;-85
2023/02/23 12:21:33;;;;;;;53.63;48.03;;;;;;;;;;5143689;27;20430;-86
2023/02/23 12:24:06;;;;;;;56.37;50.20;;;;;;;;;;5145930;27;20490;-85
2023/02/23 12:26:34;;;;;;;57.93;51.27;;;;;;;;;;5144629;27;20900;-85
2023/02/23 12:29:04;;;;;;;52.13;46.53;;;;;;;;;;5145485;27;20494;-85
2023/02/23 12:31:39;;;;;;;53.63;47.83;;;;;;;;;;5142502;27;20496;-85
2023/02/23 12:34:12;;;;;;;54.33;48.40;;;;;;;;;;5143517;27;20491;-85
2023/02/23 12:36:42;;;;;;;53.87;47.90;;;;;;;;;;5143337;27;20475;-86
2023/02/23 12:39:16;;;;;;;54.57;46.57;;;;;;;;;;5144081;27;20472;-82
2023/02/23 12:41:45;;;;;;;59.07;48.87;;;;;;;;;;5143533;27;20883;-84
2023/02/23 12:44:17;;;;;;;55.73;47.67;;;;;;;;;;5144074;27;20453;-82
2023/02/23 12:46:47;;;;;;;51.83;46.17;;;;;;;;;;5144474;27;20480;-82
2023/02/23 12:49:19;;;;;;;59.63;48.73;;;;;;;;;;5146393;27;20466;-82
2023/02/23 12:51:51;;;;;;;61.43;47.63;;;;;;;;;;5146293;27;20518;-83
2023/02/23 12:54:18;;;;;;;52.00;44.60;;;;;;;;;;5146889;27;20419;-82
2023/02/23 12:56:50;;;;;;;56.17;49.77;;;;;;;;;;5146503;27;20463;-82
2023/02/23 12:59:24;;;;;;;53.47;48.00;;;;;;;;;;5146423;27;20434;-83
2023/02/23 13:01:54;;;;;;;57.63;49.07;;;;;;;;;;5146502;27;20460;-83
2023/02/23 13:04:39;;;;;;;63.87;50.50;;;;;;;;;;5146096;27;20989;-82
2023/02/23 13:07:13;;;;;;;54.63;42.80;;;;;;;;;;5145573;27;20824;-83
2023/02/23 13:09:45;;;;;;;55.17;43.77;;;;;;;;;;5144249;27;20520;-89
2023/02/23 13:12:17;;;;;;;57.90;46.50;;;;;;;;;;5145045;27;20964;-83
2023/02/23 13:14:48;;;;;;;54.17;44.97;;;;;;;;;;5145779;27;20483;-82
2023/02/23 13:17:25;;;;;;;51.93;43.20;;;;;;;;;;5144616;27;20502;-83
2023/02/23 13:19:54;;;;;;;47.13;42.03;;;;;;;;;;5145525;27;20508;-82
2023/02/23 13:22:31;;;;;;;50.67;41.27;;;;;;;;;;5146326;27;20859;-82
2023/02/23 13:24:59;;;;;;;49.47;44.10;;;;;;;;;;5145688;27;20486;-82
2023/02/23 13:27:27;;;;;;;51.90;42.93;;;;;;;;;;5145955;27;20449;-82
2023/02/23 13:29:55;;;;;;;48.13;42.83;;;;;;;;;;5145755;27;20428;-82
2023/02/23 13:32:23;;;;;;;57.60;45.70;;;;;;;;;;5145708;27;20494;-82
2023/02/23 13:34:52;;;;;;;52.10;45.13;;;;;;;;;;5147247;27;20534;-82
2023/02/23 13:37:22;;;;;;;61.93;45.77;;;;;;;;;;5147350;27;20932;-82
2023/02/23 13:39:56;;;;;;;50.93;45.33;;;;;;;;;;5147670;27;20440;-82
2023/02/23 13:42:41;;;;;;;61.90;47.37;;;;;;;;;;5146824;27;20441;-82
2023/02/23 13:45:17;;;;;;;50.43;44.20;;;;;;;;;;5147104;27;20497;-82
2023/02/23 13:47:47;;;;;;;40.97;36.43;;;;;;;;;;5147437;27;20444;-82
2023/02/23 13:50:18;;;;;;;49.87;41.10;;;;;;;;;;5146574;27;20546;-83
2023/02/23 13:52:46;;;;;;;49.90;42.13;;;;;;;;;;5145777;27;20430;-83
2023/02/23 13:55:32;;;;;;;49.00;43.70;;;;;;;;;;5146519;27;20520;-83
2023/02/23 13:58:06;;;;;;;59.13;43.10;;;;;;;;;;5145672;27;20866;-81
2023/02/23 14:00:33;;;;;;;50.57;41.77;;;;;;;;;;5144749;28;20474;-82
2023/02/23 14:03:04;;;;;;;48.00;41.63;;;;;;;;;;5144699;28;20453;-83
2023/02/23 14:05:32;;;;;;;43.27;38.60;;;;;;;;;;5145717;28;20514;-82
2023/02/23 14:08:01;;;;;;;48.33;40.90;;;;;;;;;;5146108;28;20843;-82
2023/02/23 14:10:29;;;;;;;40.90;36.50;;;;;;;;;;5146077;28;20539;-82
2023/02/23 14:13:25;;;;;;;43.80;38.73;;;;;;;;;;5144926;28;20502;-83
2023/02/23 14:16:09;;;;;;;45.37;39.40;;;;;;;;;;5145219;28;20488;-82
2023/02/23 14:18:36;;;;;;;47.13;37.77;;;;;;;;;;5145499;28;20460;-82
2023/02/23 14:21:06;;;;;;;44.47;40.07;;;;;;;;;;5143990;28;20456;-80
2023/02/23 14:23:34;;;;;;;42.30;37.80;;;;;;;;;;5141258;28;20955;-80
2023/02/23 14:26:14;;;;;;;39.73;35.60;;;;;;;;;;5141777;28;20485;-79
2023/02/23 14:28:43;;;;;;;42.73;37.03;;;;;;;;;;5142065;28;20514;-79
2023/02/23 14:31:19;;;;;;;41.77;37.10;;;;;;;;;;5139105;28;20441;-80
2023/02/23 14:33:57;;;;;;;44.40;38.60;;;;;;;;;;5140672;28;20464;-79
2023/02/23 14:36:38;;;;;;;39.70;35.53;;;;;;;;;;5142576;28;20779;-81
2023/02/23 14:39:08;;;;;;;41.13;36.60;;;;;;;;;;5140925;28;20446;-80
2023/02/23 14:41:41;;;;;;;37.00;33.30;;;;;;;;;;5140152;28;20417;-80
2023/02/23 14:44:13;;;;;;;38.43;34.40;;;;;;;;;;5139384;28;20444;-80
2023/02/23 14:46:47;;;;;;;36.70;33.07;;;;;;;;;;5139071;28;20543;-79
2023/02/23 14:49:18;;;;;;;38.67;31.97;;;;;;;;;;5139785;27;20865;-79
2023/02/23 14:51:47;;;;;;;36.27;32.53;;;;;;;;;;5142907;27;20434;-80
2023/02/23 14:54:22;;;;;;;37.70;33.23;;;;;;;;;;5143056;27;20456;-79
2023/02/23 14:56:50;;;;;;;35.73;32.33;;;;;;;;;;5143251;27;20517;-79
2023/02/23 14:59:22;;;;;;;38.43;34.63;;;;;;;;;;5141957;27;20496;-79
2023/02/23 15:01:50;;;;;;;40.40;36.27;;;;;;;;;;5141705;27;20448;-80
2023/02/23 15:04:19;;;;;;;38.57;34.27;;;;;;;;;;5142489;27;20526;-79
2023/02/23 15:06:46;;;;;;;36.80;32.50;;;;;;;;;;5142092;27;20498;-79
2023/02/23 15:09:16;;;;;;;34.97;31.67;;;;;;;;;;5142704;27;20442;-79
2023/02/23 15:11:45;;;;;;;34.87;31.57;;;;;;;;;;5139608;27;20452;-78
2023/02/23 15:14:14;;;;;;;33.43;30.20;;;;;;;;;;5138306;27;20442;-78
2023/02/23 15:16:44;;;;;;;35.00;31.67;;;;;;;;;;5137920;27;20487;-79
2023/02/23 15:19:29;;;;;;;36.13;32.53;;;;;;;;;;5138965;27;20505;-78
2023/02/23 15:21:58;;;;;;;34.33;30.83;;;;;;;;;;5141524;27;20454;-80
2023/02/23 15:24:27;;;;;;;33.47;30.00;;;;;;;;;;5146638;27;20449;-80
2023/02/23 15:26:55;;;;;;;33.87;30.30;;;;;;;;;;5146888;27;20474;-81
2023/02/23 15:29:23;;;;;;;33.40;30.20;;;;;;;;;;5146896;27;20487;-81
2023/02/23 15:31:53;;;;;;;34.73;31.50;;;;;;;;;;5147564;27;20520;-81
2023/02/23 15:34:21;;;;;;;35.73;32.20;;;;;;;;;;5148152;27;20499;-80
2023/02/23 15:36:53;;;;;;;33.27;30.00;;;;;;;;;;5147280;27;20455;-81
2023/02/23 15:39:22;;;;;;;34.93;31.40;;;;;;;;;;5148041;27;20491;-81
2023/02/23 15:41:50;;;;;;;32.80;30.00;;;;;;;;;;5148184;27;20502;-80
2023/02/23 15:44:20;;;;;;;32.80;29.73;;;;;;;;;;5147358;27;20455;-80